createdAt,value
2023-05-05T00:00:58.869Z,101540.75
2023-05-05T00:03:25.812Z,101531.56
2023-05-05T00:05:57.402Z,101524.22
2023-05-05T00:08:23.814Z,101526.38
2023-05-05T00:10:52.372Z,101536.38
2023-05-05T00:13:20.317Z,101536.47
2023-05-05T00:15:48.828Z,101535.97
2023-05-05T00:18:16.670Z,101538.44
2023-05-05T00:20:47.160Z,101538.47
2023-05-05T00:23:14.633Z,101528.88
2023-05-05T00:25:41.258Z,101528.56
2023-05-05T00:28:07.956Z,101524.59
2023-05-05T00:30:34.633Z,101525.34
2023-05-05T00:33:01.493Z,101514.47
2023-05-05T00:35:27.909Z,101513.53
2023-05-05T00:37:55.132Z,101516.13
2023-05-05T00:40:21.731Z,101513.97
2023-05-05T00:42:52.182Z,101527.63
2023-05-05T00:45:19.921Z,101532.13
2023-05-05T00:47:54.103Z,101549.91
2023-05-05T00:50:26.127Z,101550.69
2023-05-05T00:52:55.303Z,101550.13
2023-05-05T00:55:22.000Z,101548.94
2023-05-05T00:57:49.419Z,101541.88
2023-05-05T01:00:16.730Z,101539.50
2023-05-05T01:02:44.234Z,101528.66
2023-05-05T01:05:11.596Z,101534.03
2023-05-05T01:07:43.655Z,101524.94
2023-05-05T01:10:30.680Z,101523.75
2023-05-05T01:13:29.466Z,101529.38
2023-05-05T01:16:04.323Z,101524.81
2023-05-05T01:18:33.692Z,101529.09
2023-05-05T01:21:18.283Z,101533.41
2023-05-05T01:24:00.489Z,101543.72
2023-05-05T01:26:59.096Z,101535.41
2023-05-05T01:30:02.270Z,101547.41
2023-05-05T01:32:34.502Z,101546.97
2023-05-05T01:35:13.421Z,101554.34
2023-05-05T01:37:46.366Z,101558.19
2023-05-05T01:40:15.294Z,101568.91
2023-05-05T01:42:44.351Z,101542.34
2023-05-05T01:45:12.734Z,101548.63
2023-05-05T01:47:42.535Z,101553.53
2023-05-05T01:50:11.374Z,101560.69
2023-05-05T01:52:39.823Z,101556.66
2023-05-05T01:55:08.396Z,101569.25
2023-05-05T01:57:36.764Z,101587.78
2023-05-05T02:00:04.487Z,101592.56
2023-05-05T02:02:32.920Z,101585.50
2023-05-05T02:05:01.127Z,101592.03
2023-05-05T02:07:28.166Z,101572.06
2023-05-05T02:09:55.659Z,101544.94
2023-05-05T02:12:23.034Z,101532.34
2023-05-05T02:14:51.090Z,101531.94
2023-05-05T02:17:20.142Z,101517.81
2023-05-05T02:19:49.593Z,101518.69
2023-05-05T02:22:16.820Z,101549.50
2023-05-05T02:24:43.790Z,101559.47
2023-05-05T02:27:11.635Z,101565.84
2023-05-05T02:29:45.010Z,101556.53
2023-05-05T02:32:20.325Z,101554.13
2023-05-05T02:34:49.554Z,101550.34
2023-05-05T02:37:25.484Z,101552.53
2023-05-05T02:39:59.066Z,101556.66
2023-05-05T02:42:32.108Z,101556.50
2023-05-05T02:45:01.812Z,101551.69
2023-05-05T02:47:35.233Z,101555.59
2023-05-05T02:50:01.823Z,101551.44
2023-05-05T02:52:28.313Z,101545.38
2023-05-05T02:54:54.713Z,101543.94
2023-05-05T02:57:31.411Z,101540.03
2023-05-05T03:00:06.774Z,101540.63
2023-05-05T03:02:46.008Z,101545.38
2023-05-05T03:05:22.364Z,101547.50
2023-05-05T03:07:56.123Z,101552.34
2023-05-05T03:10:28.944Z,101548.97
2023-05-05T03:13:00.257Z,101561.53
2023-05-05T03:15:41.437Z,101560.88
2023-05-05T03:18:10.547Z,101563.97
2023-05-05T03:20:39.770Z,101566.97
2023-05-05T03:23:06.603Z,101564.06
2023-05-05T03:25:46.650Z,101574.88
2023-05-05T03:28:14.185Z,101574.22
2023-05-05T03:30:41.246Z,101586.41
2023-05-05T03:33:11.936Z,101593.06
2023-05-05T03:35:38.337Z,101586.03
2023-05-05T03:38:04.707Z,101576.66
2023-05-05T03:40:43.036Z,101564.00
2023-05-05T03:43:10.653Z,101564.28
2023-05-05T03:45:37.086Z,101567.28
2023-05-05T03:48:03.652Z,101575.66
2023-05-05T03:50:30.116Z,101579.41
2023-05-05T03:52:56.503Z,101584.25
2023-05-05T03:55:22.947Z,101592.63
2023-05-05T03:57:49.272Z,101605.38
2023-05-05T04:00:16.029Z,101606.53
2023-05-05T04:02:43.537Z,101602.28
2023-05-05T04:05:10.137Z,101612.25
2023-05-05T04:07:36.496Z,101621.41
2023-05-05T04:10:03.059Z,101632.59
2023-05-05T04:12:29.428Z,101634.78
2023-05-05T04:14:55.888Z,101629.47
2023-05-05T04:17:22.296Z,101637.41
2023-05-05T04:19:48.748Z,101643.88
2023-05-05T04:22:15.072Z,101640.97
2023-05-05T04:24:41.473Z,101645.69
2023-05-05T04:27:07.828Z,101645.09
2023-05-05T04:29:34.256Z,101653.31
2023-05-05T04:32:01.101Z,101648.00
2023-05-05T04:34:27.537Z,101661.50
2023-05-05T04:36:53.904Z,101668.94
2023-05-05T04:39:20.293Z,101668.94
2023-05-05T04:41:46.852Z,101674.34
2023-05-05T04:44:13.232Z,101670.06
2023-05-05T04:46:39.880Z,101660.72
2023-05-05T04:49:06.345Z,101661.78
2023-05-05T04:51:32.770Z,101660.81
2023-05-05T04:53:59.214Z,101671.34
2023-05-05T04:56:25.716Z,101670.97
2023-05-05T04:58:52.076Z,101675.63
2023-05-05T05:01:18.458Z,101679.69
2023-05-05T05:03:44.963Z,101676.28
2023-05-05T05:06:11.356Z,101677.84
2023-05-05T05:08:37.691Z,101691.91
2023-05-05T05:11:04.106Z,101682.91
2023-05-05T05:13:30.582Z,101681.94
2023-05-05T05:15:56.974Z,101691.72
2023-05-05T05:18:23.383Z,101681.75
2023-05-05T05:20:49.830Z,101687.94
2023-05-05T05:23:16.216Z,101692.19
2023-05-05T05:25:43.376Z,101681.88
2023-05-05T05:28:10.958Z,101686.31
2023-05-05T05:30:37.456Z,101694.16
2023-05-05T05:33:03.935Z,101696.50
2023-05-05T05:35:31.424Z,101702.25
2023-05-05T05:37:57.848Z,101696.53
2023-05-05T05:40:24.262Z,101698.00
2023-05-05T05:42:50.730Z,101697.59
2023-05-05T05:45:17.181Z,101709.97
2023-05-05T05:47:43.649Z,101705.19
2023-05-05T05:50:10.884Z,101713.00
2023-05-05T05:52:37.432Z,101707.09
2023-05-05T05:55:04.159Z,101707.69
2023-05-05T05:57:30.504Z,101709.81
2023-05-05T05:59:59.209Z,101709.63
2023-05-05T06:02:27.245Z,101702.28
2023-05-05T06:04:53.732Z,101700.03
2023-05-05T06:07:20.139Z,101699.75
2023-05-05T06:09:46.579Z,101698.38
2023-05-05T06:12:13.017Z,101697.91
2023-05-05T06:14:39.356Z,101693.03
2023-05-05T06:17:05.759Z,101687.66
2023-05-05T06:19:32.125Z,101697.34
2023-05-05T06:21:58.549Z,101699.50
2023-05-05T06:24:24.948Z,101700.81
2023-05-05T06:26:51.356Z,101703.97
2023-05-05T06:29:17.702Z,101708.00
2023-05-05T06:31:44.130Z,101706.53
2023-05-05T06:34:10.878Z,101724.91
2023-05-05T06:36:37.291Z,101720.25
2023-05-05T06:39:03.879Z,101716.22
2023-05-05T06:41:30.343Z,101710.72
2023-05-05T06:43:56.755Z,101723.84
2023-05-05T06:46:23.239Z,101724.00
2023-05-05T06:48:49.684Z,101729.66
2023-05-05T06:51:16.143Z,101725.63
2023-05-05T06:53:42.643Z,101721.50
2023-05-05T06:56:08.996Z,101723.16
2023-05-05T06:58:35.295Z,101721.66
2023-05-05T07:01:01.688Z,101726.78
2023-05-05T07:03:28.356Z,101731.69
2023-05-05T07:05:54.900Z,101735.78
2023-05-05T07:08:21.308Z,101739.28
2023-05-05T07:10:47.765Z,101737.78
2023-05-05T07:13:15.583Z,101741.22
2023-05-05T07:15:46.264Z,101743.94
2023-05-05T07:18:15.016Z,101736.56
2023-05-05T07:20:41.484Z,101739.91
2023-05-05T07:23:07.915Z,101735.91
2023-05-05T07:25:34.330Z,101733.84
2023-05-05T07:28:00.980Z,101736.78
2023-05-05T07:30:27.380Z,101749.50
2023-05-05T07:32:54.824Z,101743.06
2023-05-05T07:35:21.529Z,101752.97
2023-05-05T07:37:47.938Z,101752.28
2023-05-05T07:40:14.360Z,101745.19
2023-05-05T07:42:40.954Z,101737.16
2023-05-05T07:45:07.850Z,101739.06
2023-05-05T07:47:34.273Z,101743.06
2023-05-05T07:50:00.833Z,101740.16
2023-05-05T07:52:43.675Z,101741.78
2023-05-05T07:55:12.859Z,101747.63
2023-05-05T07:57:39.694Z,101752.19
2023-05-05T08:00:06.930Z,101742.31
2023-05-05T08:02:33.526Z,101737.28
2023-05-05T08:04:59.973Z,101745.13
2023-05-05T08:07:26.346Z,101741.88
2023-05-05T08:09:52.752Z,101742.25
2023-05-05T08:12:19.541Z,101749.59
2023-05-05T08:14:45.952Z,101746.56
2023-05-05T08:17:12.443Z,101741.78
2023-05-05T08:19:38.915Z,101749.25
2023-05-05T08:22:05.267Z,101740.50
2023-05-05T08:24:31.699Z,101732.72
2023-05-05T08:26:58.041Z,101735.69
2023-05-05T08:29:24.402Z,101732.50
2023-05-05T08:31:51.075Z,101732.22
2023-05-05T08:34:17.448Z,101732.97
2023-05-05T08:36:43.868Z,101739.41
2023-05-05T08:39:10.209Z,101745.97
2023-05-05T08:41:36.575Z,101748.72
2023-05-05T08:44:02.952Z,101756.78
2023-05-05T08:46:30.992Z,101753.66
2023-05-05T08:48:57.969Z,101757.00
2023-05-05T08:51:28.497Z,101758.88
2023-05-05T08:53:54.786Z,101761.09
2023-05-05T08:56:21.983Z,101760.84
2023-05-05T08:58:49.418Z,101755.03
2023-05-05T09:01:17.121Z,101763.72
2023-05-05T09:03:45.038Z,101765.31
2023-05-05T09:06:11.715Z,101771.00
2023-05-05T09:08:39.084Z,101761.06
2023-05-05T09:11:06.049Z,101764.56
2023-05-05T09:13:32.665Z,101756.41
2023-05-05T09:15:59.591Z,101764.78
2023-05-05T09:18:26.697Z,101763.19
2023-05-05T09:20:53.198Z,101758.00
2023-05-05T09:23:20.627Z,101754.78
2023-05-05T09:26:02.595Z,101752.28
2023-05-05T09:28:29.298Z,101757.53
2023-05-05T09:30:55.870Z,101754.06
2023-05-05T09:33:31.551Z,101760.84
2023-05-05T09:35:58.435Z,101761.22
2023-05-05T09:38:25.085Z,101762.06
2023-05-05T09:40:54.348Z,101757.09
2023-05-05T09:43:23.439Z,101756.50
2023-05-05T09:45:50.705Z,101754.00
2023-05-05T09:48:30.812Z,101751.28
2023-05-05T09:50:58.488Z,101756.25
2023-05-05T09:53:26.417Z,101750.16
2023-05-05T09:56:01.539Z,101741.91
2023-05-05T09:58:30.126Z,101755.66
2023-05-05T10:00:58.222Z,101744.63
2023-05-05T10:03:25.977Z,101753.88
2023-05-05T10:05:57.090Z,101736.91
2023-05-05T10:08:28.270Z,101750.41
2023-05-05T10:11:00.538Z,101753.00
2023-05-05T10:13:27.830Z,101772.59
2023-05-05T10:15:56.241Z,101790.06
2023-05-05T10:18:27.600Z,101811.28
2023-05-05T10:21:02.100Z,101854.16
2023-05-05T10:23:53.839Z,101788.56
2023-05-05T10:26:23.024Z,101799.25
2023-05-05T10:28:57.139Z,101809.13
2023-05-05T10:31:41.712Z,101803.09
2023-05-05T10:34:18.082Z,101802.88
2023-05-05T10:36:45.010Z,101801.78
2023-05-05T10:39:11.836Z,101796.28
2023-05-05T10:41:38.520Z,101797.13
2023-05-05T10:44:06.611Z,101799.09
2023-05-05T10:46:33.204Z,101804.81
2023-05-05T10:49:17.270Z,101812.84
2023-05-05T10:51:49.502Z,101811.81
2023-05-05T10:54:38.181Z,101805.16
2023-05-05T10:57:09.671Z,101804.22
2023-05-05T10:59:39.104Z,101821.47
2023-05-05T11:02:28.023Z,101830.81
2023-05-05T11:05:23.169Z,101850.94
2023-05-05T11:07:51.534Z,101849.47
2023-05-05T11:10:23.556Z,101848.41
2023-05-05T11:12:57.693Z,101843.78
2023-05-05T11:15:24.019Z,101852.53
2023-05-05T11:17:50.751Z,101846.69
2023-05-05T11:20:17.342Z,101841.56
2023-05-05T11:23:02.325Z,101832.13
2023-05-05T11:25:34.850Z,101838.13
2023-05-05T11:28:10.554Z,101837.25
2023-05-05T11:30:58.377Z,101836.75
2023-05-05T11:33:37.585Z,101846.88
2023-05-05T11:36:06.940Z,101855.75
2023-05-05T11:39:08.272Z,101860.22
2023-05-05T11:41:56.594Z,101860.63
2023-05-05T11:44:31.357Z,101860.72
2023-05-05T11:46:57.615Z,101862.72
2023-05-05T11:49:27.067Z,101860.09
2023-05-05T11:51:57.140Z,101857.31
2023-05-05T11:54:23.655Z,101860.09
2023-05-05T11:56:51.194Z,101855.84
2023-05-05T11:59:17.526Z,101862.03
2023-05-05T12:01:44.053Z,101856.44
2023-05-05T12:04:20.511Z,101853.22
2023-05-05T12:06:47.138Z,101845.91
2023-05-05T12:09:16.996Z,101843.09
2023-05-05T12:11:53.858Z,101841.78
2023-05-05T12:14:20.890Z,101840.78
2023-05-05T12:17:08.547Z,101841.78
2023-05-05T12:19:36.162Z,101842.16
2023-05-05T12:22:04.469Z,101841.38
2023-05-05T12:24:31.647Z,101848.78
2023-05-05T12:27:08.355Z,101846.19
2023-05-05T12:29:34.782Z,101841.09
2023-05-05T12:32:01.409Z,101844.75
2023-05-05T12:34:27.960Z,101843.53
2023-05-05T12:36:54.557Z,101845.03
2023-05-05T12:39:21.601Z,101844.69
2023-05-05T12:41:47.996Z,101842.06
2023-05-05T12:44:14.360Z,101841.00
2023-05-05T12:46:48.123Z,101840.66
2023-05-05T12:49:15.025Z,101840.91
2023-05-05T12:51:53.952Z,101830.53
2023-05-05T12:54:20.383Z,101837.16
2023-05-05T12:56:47.861Z,101832.72
2023-05-05T12:59:23.446Z,101832.53
2023-05-05T13:01:54.381Z,101832.72
2023-05-05T13:04:22.959Z,101837.06
2023-05-05T13:06:53.053Z,101825.03
2023-05-05T13:09:30.327Z,101832.53
2023-05-05T13:11:56.802Z,101826.34
2023-05-05T13:14:23.562Z,101837.88
2023-05-05T13:16:50.013Z,101836.44
2023-05-05T13:19:16.593Z,101836.03
2023-05-05T13:21:43.024Z,101836.03
2023-05-05T13:24:23.411Z,101834.97
2023-05-05T13:26:55.733Z,101843.00
2023-05-05T13:29:23.604Z,101848.22
2023-05-05T13:31:52.644Z,101855.91
2023-05-05T13:34:19.033Z,101854.16
2023-05-05T13:36:45.836Z,101847.72
2023-05-05T13:39:12.577Z,101854.34
2023-05-05T13:41:39.027Z,101854.09
2023-05-05T13:44:05.400Z,101856.63
2023-05-05T13:46:31.816Z,101860.97
2023-05-05T13:48:58.302Z,101864.63
2023-05-05T13:51:24.790Z,101861.25
2023-05-05T13:53:51.456Z,101862.03
2023-05-05T13:56:19.048Z,101863.25
2023-05-05T13:58:46.269Z,101858.63
2023-05-05T14:01:12.750Z,101856.19
2023-05-05T14:03:39.664Z,101852.88
2023-05-05T14:06:07.437Z,101853.66
2023-05-05T14:08:34.162Z,101846.59
2023-05-05T14:11:00.555Z,101853.94
2023-05-05T14:13:26.928Z,101840.41
2023-05-05T14:15:53.801Z,101843.22
2023-05-05T14:18:20.721Z,101838.84
2023-05-05T14:20:47.141Z,101828.66
2023-05-05T14:23:13.467Z,101822.19
2023-05-05T14:25:39.888Z,101811.72
2023-05-05T14:28:07.077Z,101813.63
2023-05-05T14:30:33.422Z,101808.41
2023-05-05T14:33:01.093Z,101809.19
2023-05-05T14:35:27.565Z,101793.66
2023-05-05T14:37:53.905Z,101788.34
2023-05-05T14:40:20.315Z,101790.59
2023-05-05T14:42:46.711Z,101789.31
2023-05-05T14:45:13.116Z,101768.50
2023-05-05T14:47:39.559Z,101762.63
2023-05-05T14:50:09.526Z,101754.00
2023-05-05T14:52:40.356Z,101766.66
2023-05-05T14:55:07.604Z,101784.75
2023-05-05T14:57:34.425Z,101809.75
2023-05-05T15:00:00.771Z,101798.75
2023-05-05T15:02:27.208Z,101795.78
2023-05-05T15:04:53.630Z,101791.63
2023-05-05T15:07:20.472Z,101798.66
2023-05-05T15:09:46.966Z,101795.78
2023-05-05T15:12:13.417Z,101796.63
2023-05-05T15:14:39.937Z,101799.16
2023-05-05T15:17:06.531Z,101797.72
2023-05-05T15:19:32.914Z,101790.38
2023-05-05T15:21:59.404Z,101786.88
2023-05-05T15:24:26.189Z,101784.25
2023-05-05T15:26:52.564Z,101789.19
2023-05-05T15:29:18.982Z,101783.19
2023-05-05T15:31:45.449Z,101777.22
2023-05-05T15:34:11.887Z,101783.09
2023-05-05T15:36:38.304Z,101774.69
2023-05-05T15:39:04.752Z,101769.53
2023-05-05T15:41:33.946Z,101766.72
2023-05-05T15:44:00.783Z,101773.09
2023-05-05T15:46:27.233Z,101772.53
2023-05-05T15:48:53.614Z,101773.41
2023-05-05T15:51:20.092Z,101775.94
2023-05-05T15:53:47.149Z,101769.19
2023-05-05T15:56:13.618Z,101765.22
2023-05-05T15:58:40.019Z,101768.13
2023-05-05T16:01:06.528Z,101762.59
2023-05-05T16:03:33.042Z,101765.09
2023-05-05T16:05:59.583Z,101763.06
2023-05-05T16:08:25.984Z,101768.03
2023-05-05T16:10:52.625Z,101765.50
2023-05-05T16:13:19.306Z,101755.09
2023-05-05T16:15:46.282Z,101757.38
2023-05-05T16:18:12.657Z,101758.47
2023-05-05T16:20:39.124Z,101763.44
2023-05-05T16:23:05.606Z,101755.78
2023-05-05T16:25:32.042Z,101752.19
2023-05-05T16:28:00.167Z,101752.19
2023-05-05T16:30:26.831Z,101745.56
2023-05-05T16:32:54.361Z,101749.19
2023-05-05T16:35:22.752Z,101746.53
2023-05-05T16:37:49.137Z,101744.31
2023-05-05T16:40:15.845Z,101744.50
2023-05-05T16:42:44.358Z,101744.31
2023-05-05T16:45:11.564Z,101748.84
2023-05-05T16:47:38.193Z,101745.75
2023-05-05T16:50:05.344Z,101744.88
2023-05-05T16:52:31.741Z,101741.97
2023-05-05T16:54:58.147Z,101743.59
2023-05-05T16:57:24.605Z,101742.75
2023-05-05T16:59:50.996Z,101742.84
2023-05-05T17:02:17.412Z,101751.94
2023-05-05T17:04:43.949Z,101745.88
2023-05-05T17:07:13.170Z,101757.47
2023-05-05T17:09:39.528Z,101749.84
2023-05-05T17:12:06.269Z,101745.28
2023-05-05T17:14:33.549Z,101747.00
2023-05-05T17:16:59.980Z,101752.91
2023-05-05T17:19:26.768Z,101750.06
2023-05-05T17:21:54.190Z,101745.63
2023-05-05T17:24:20.900Z,101756.66
2023-05-05T17:26:47.570Z,101748.94
2023-05-05T17:29:15.177Z,101753.28
2023-05-05T17:31:41.967Z,101758.47
2023-05-05T17:34:08.706Z,101752.28
2023-05-05T17:36:37.969Z,101754.44
2023-05-05T17:39:05.852Z,101747.38
2023-05-05T17:41:32.219Z,101743.13
2023-05-05T17:43:59.434Z,101753.97
2023-05-05T17:46:26.044Z,101757.44
2023-05-05T17:48:53.074Z,101756.78
2023-05-05T17:51:19.863Z,101761.34
2023-05-05T17:53:46.281Z,101758.94
2023-05-05T17:56:12.633Z,101763.78
2023-05-05T17:58:39.692Z,101775.75
2023-05-05T18:01:06.234Z,101770.72
2023-05-05T18:03:32.875Z,101768.22
2023-05-05T18:05:59.380Z,101766.38
2023-05-05T18:08:25.709Z,101765.69
2023-05-05T18:10:53.519Z,101772.09
2023-05-05T18:13:21.363Z,101776.06
2023-05-05T18:15:47.947Z,101770.94
2023-05-05T18:18:14.374Z,101775.75
2023-05-05T18:20:40.926Z,101771.28
2023-05-05T18:23:07.263Z,101774.38
2023-05-05T18:25:33.679Z,101764.91
2023-05-05T18:28:00.132Z,101769.56
2023-05-05T18:30:26.560Z,101765.19
2023-05-05T18:32:53.010Z,101772.66
2023-05-05T18:35:19.511Z,101784.44
2023-05-05T18:37:45.858Z,101780.28
2023-05-05T18:40:12.590Z,101771.03
2023-05-05T18:42:39.070Z,101781.84
2023-05-05T18:45:06.512Z,101785.81
2023-05-05T18:47:33.757Z,101790.22
2023-05-05T18:50:00.192Z,101782.72
2023-05-05T18:52:27.379Z,101792.25
2023-05-05T18:54:53.799Z,101786.44
2023-05-05T18:57:20.178Z,101781.19
2023-05-05T18:59:46.654Z,101785.28
2023-05-05T19:02:13.114Z,101791.94
2023-05-05T19:04:41.236Z,101787.75
2023-05-05T19:07:07.718Z,101788.38
2023-05-05T19:09:34.176Z,101787.66
2023-05-05T19:12:02.279Z,101795.41
2023-05-05T19:14:29.079Z,101803.00
2023-05-05T19:16:56.044Z,101799.88
2023-05-05T19:19:22.636Z,101802.75
2023-05-05T19:21:48.993Z,101799.22
2023-05-05T19:24:15.351Z,101811.41
2023-05-05T19:26:42.003Z,101801.81
2023-05-05T19:29:08.351Z,101812.00
2023-05-05T19:31:34.768Z,101809.47
2023-05-05T19:34:03.402Z,101819.66
2023-05-05T19:36:34.106Z,101826.13
2023-05-05T19:39:01.880Z,101827.06
2023-05-05T19:41:29.536Z,101832.66
2023-05-05T19:43:56.008Z,101825.59
2023-05-05T19:46:26.286Z,101823.31
2023-05-05T19:48:52.725Z,101819.91
2023-05-05T19:51:19.143Z,101820.94
2023-05-05T19:53:45.775Z,101825.72
2023-05-05T19:56:12.123Z,101821.56
2023-05-05T19:58:59.179Z,101831.66
2023-05-05T20:01:26.248Z,101827.63
2023-05-05T20:03:54.311Z,101828.88
2023-05-05T20:06:21.550Z,101825.56
2023-05-05T20:08:47.982Z,101833.16
2023-05-05T20:11:16.055Z,101835.06
2023-05-05T20:13:43.047Z,101838.88
2023-05-05T20:16:09.821Z,101828.16
2023-05-05T20:18:36.251Z,101831.88
2023-05-05T20:21:02.840Z,101835.69
2023-05-05T20:23:29.374Z,101834.66
2023-05-05T20:25:56.664Z,101841.06
2023-05-05T20:28:23.243Z,101840.28
2023-05-05T20:30:49.645Z,101844.09
2023-05-05T20:33:16.097Z,101846.00
2023-05-05T20:35:42.429Z,101838.03
2023-05-05T20:38:09.671Z,101851.59
2023-05-05T20:40:36.827Z,101845.47
2023-05-05T20:43:03.274Z,101845.41
2023-05-05T20:45:31.700Z,101847.28
2023-05-05T20:47:58.658Z,101844.03
2023-05-05T20:50:25.229Z,101841.56
2023-05-05T20:52:51.606Z,101844.19
2023-05-05T20:55:18.153Z,101837.38
2023-05-05T20:57:44.556Z,101835.69
2023-05-05T21:00:11.341Z,101834.97
2023-05-05T21:02:38.027Z,101831.75
2023-05-05T21:05:05.147Z,101831.91
2023-05-05T21:07:35.735Z,101835.47
2023-05-05T21:10:04.037Z,101830.31
2023-05-05T21:12:31.189Z,101834.59
2023-05-05T21:14:58.893Z,101838.31
2023-05-05T21:17:26.694Z,101834.91
2023-05-05T21:19:53.796Z,101836.91
2023-05-05T21:22:23.725Z,101829.94
2023-05-05T21:24:50.185Z,101832.78
2023-05-05T21:27:16.734Z,101825.72
2023-05-05T21:29:43.174Z,101827.72
2023-05-05T21:32:11.451Z,101826.84
2023-05-05T21:34:39.033Z,101831.50
2023-05-05T21:37:06.462Z,101833.47
2023-05-05T21:39:33.236Z,101836.09
2023-05-05T21:42:01.026Z,101834.50
2023-05-05T21:44:28.103Z,101838.00
2023-05-05T21:46:55.584Z,101832.38
2023-05-05T21:49:22.066Z,101833.34
2023-05-05T21:51:48.481Z,101835.38
2023-05-05T21:54:14.915Z,101825.69
2023-05-05T21:56:41.326Z,101828.47
2023-05-05T21:59:07.714Z,101825.63
2023-05-05T22:01:34.084Z,101826.63
2023-05-05T22:04:00.993Z,101831.28
2023-05-05T22:06:27.641Z,101825.03
2023-05-05T22:08:54.061Z,101820.75
2023-05-05T22:11:20.467Z,101823.69
2023-05-05T22:13:46.869Z,101826.38
2023-05-05T22:16:16.387Z,101821.94
2023-05-05T22:18:43.295Z,101822.97
2023-05-05T22:21:09.741Z,101822.91
2023-05-05T22:23:37.138Z,101831.19
2023-05-05T22:26:04.769Z,101837.72
2023-05-05T22:28:31.217Z,101829.78
2023-05-05T22:30:57.622Z,101828.91
2023-05-05T22:33:24.436Z,101826.16
2023-05-05T22:35:52.029Z,101826.22
2023-05-05T22:38:18.507Z,101826.31
2023-05-05T22:40:45.380Z,101832.56
2023-05-05T22:43:11.844Z,101825.06
2023-05-05T22:45:38.301Z,101826.09
2023-05-05T22:48:05.069Z,101824.28
2023-05-05T22:50:31.506Z,101826.03
2023-05-05T22:52:57.910Z,101826.97
2023-05-05T22:55:24.856Z,101824.19
2023-05-05T22:57:52.543Z,101825.22
2023-05-05T23:00:19.462Z,101823.47
2023-05-05T23:02:45.876Z,101822.53
2023-05-05T23:05:12.743Z,101815.31
2023-05-05T23:07:39.360Z,101819.75
2023-05-05T23:10:06.312Z,101820.72
2023-05-05T23:12:32.817Z,101816.19
2023-05-05T23:14:59.234Z,101818.75
2023-05-05T23:17:25.773Z,101816.06
2023-05-05T23:19:52.187Z,101816.94
2023-05-05T23:22:18.519Z,101823.25
2023-05-05T23:24:44.866Z,101814.38
2023-05-05T23:27:12.420Z,101818.88
2023-05-05T23:29:38.824Z,101812.28
2023-05-05T23:32:05.721Z,101810.53
2023-05-05T23:34:32.189Z,101816.84
2023-05-05T23:36:58.601Z,101808.84
2023-05-05T23:39:25.062Z,101812.72
2023-05-05T23:41:51.438Z,101811.91
2023-05-05T23:44:17.821Z,101814.59
2023-05-05T23:46:44.235Z,101817.50
2023-05-05T23:49:10.617Z,101810.97
2023-05-05T23:51:37.008Z,101806.97
2023-05-05T23:54:03.456Z,101806.03
2023-05-05T23:56:29.786Z,101801.50
2023-05-05T23:58:56.234Z,101802.31
